Time;durP1;ratioP1;P1;durP2;ratioP2;P2;SDS_P1;SDS_P2;PMS_P1;PMS_P2;Temp;Humidity;BMP_temperature;BMP_pressure;BME280_temperature;BME280_humidity;BME280_pressure;Samples;Min_cycle;Max_cycle;Signal;HPM_P1;HPM_P2
2023/10/19 00:02:25;;;;;;;6.72;4.58;;;;;;;18.13;50.34;99871.53;2299808;76;22385;-73
2023/10/19 00:05:29;;;;;;;5.37;4.50;;;;;;;18.12;50.38;99868.55;2262306;77;49911;-73
2023/10/19 00:08:41;;;;;;;6.53;4.65;;;;;;;18.07;50.51;99877.17;2288113;77;22276;-74
2023/10/19 00:11:41;;;;;;;7.05;4.97;;;;;;;18.03;50.58;99871.41;2240732;77;22493;-74
2023/10/19 00:14:43;;;;;;;6.67;4.78;;;;;;;17.99;50.67;99864.78;2262064;77;50851;-74
2023/10/19 00:17:45;;;;;;;7.15;4.50;;;;;;;17.97;50.73;99862.81;2287289;76;50246;-74
2023/10/19 00:24:04;;;;;;;6.33;4.47;;;;;;;18.00;50.66;99861.06;2287853;77;22281;-73
2023/10/19 00:27:14;;;;;;;5.65;4.00;;;;;;;18.04;50.51;99848.95;2288103;77;22248;-75
2023/10/19 00:30:10;;;;;;;7.55;4.80;;;;;;;18.08;50.46;99839.17;2238300;77;22443;-73
2023/10/19 00:33:20;;;;;;;6.65;4.55;;;;;;;18.12;50.39;99830.55;2290701;76;51505;-73
2023/10/19 00:36:23;;;;;;;5.47;4.37;;;;;;;18.12;50.35;99810.48;2288643;76;50790;-75
2023/10/19 00:39:27;;;;;;;6.20;4.22;;;;;;;18.12;50.35;99806.98;2339010;75;50531;-74
2023/10/19 00:42:31;;;;;;;6.30;4.37;;;;;;;18.13;50.33;99802.74;2288591;76;52681;-74
2023/10/19 00:45:39;;;;;;;6.45;4.40;;;;;;;18.09;50.38;99806.86;2286504;76;50914;-74
2023/10/19 00:48:39;;;;;;;6.42;4.53;;;;;;;18.01;50.57;99794.48;2339348;75;22324;-74
2023/10/19 00:52:02;;;;;;;6.47;4.35;;;;;;;18.00;50.58;99798.16;2339346;75;23035;-75
2023/10/19 00:54:59;;;;;;;7.03;4.60;;;;;;;17.96;50.63;99784.88;2337961;76;22704;-74
2023/10/19 00:58:09;;;;;;;6.42;4.50;;;;;;;17.96;50.60;99780.05;2338842;75;50601;-74
2023/10/19 01:01:08;;;;;;;6.10;4.35;;;;;;;17.93;50.70;99781.77;2335730;75;22241;-74
2023/10/19 01:04:22;;;;;;;5.50;4.17;;;;;;;17.99;50.56;99788.50;2312052;76;51574;-73
2023/10/19 01:07:21;;;;;;;;;;;;;;;18.04;50.48;99781.20;2325220;76;22233;-74
2023/10/19 01:10:20;;;;;;;5.53;4.45;;;;;;;18.12;50.30;99770.83;2324104;76;22345;-74
2023/10/19 01:13:34;;;;;;;7.17;4.87;;;;;;;18.16;50.17;99764.88;2325149;76;51225;-73
2023/10/19 01:16:27;;;;;;;6.40;4.78;;;;;;;18.16;50.16;99762.20;2295302;76;22785;-74
2023/10/19 01:19:29;;;;;;;6.65;4.30;;;;;;;18.11;50.34;99754.44;2298364;76;50247;-74
2023/10/19 01:22:31;;;;;;;7.17;4.45;;;;;;;18.10;50.33;99743.44;2298238;76;50630;-74
2023/10/19 01:25:50;;;;;;;6.50;4.67;;;;;;;18.08;50.37;99748.16;2272765;76;51184;-74
2023/10/19 01:28:52;;;;;;;6.50;4.60;;;;;;;18.03;50.45;99740.73;2325166;76;22192;-74
2023/10/19 01:32:05;;;;;;;6.95;4.62;;;;;;;17.99;50.54;99729.61;2272727;76;52152;-74
2023/10/19 01:35:01;;;;;;;5.70;4.28;;;;;;;17.97;50.57;99733.52;2302476;76;22319;-74
2023/10/19 01:38:03;;;;;;;5.55;4.25;;;;;;;18.00;50.46;99733.92;2271604;76;51465;-74
2023/10/19 01:41:13;;;;;;;6.03;4.58;;;;;;;17.97;50.57;99723.62;2272875;76;49631;-74
2023/10/19 01:44:13;;;;;;;6.73;4.73;;;;;;;18.03;50.47;99716.14;2297307;76;22783;-74
2023/10/19 01:47:15;;;;;;;6.37;4.60;;;;;;;18.14;50.20;99705.88;2324696;76;22813;-74
2023/10/19 01:50:19;;;;;;;5.70;4.45;;;;;;;18.17;50.08;99698.77;2299126;76;25412;-75
2023/10/19 01:53:25;;;;;;;5.17;3.98;;;;;;;18.20;50.04;99697.02;2299204;76;50143;-74
2023/10/19 01:56:25;;;;;;;6.08;4.12;;;;;;;18.15;50.13;99694.13;2325263;76;22407;-74
2023/10/19 01:59:30;;;;;;;5.75;4.37;;;;;;;18.13;50.18;99679.59;2298764;76;51562;-74
2023/10/19 02:02:33;;;;;;;6.47;4.60;;;;;;;18.10;50.24;99672.49;2302821;76;50462;-74
2023/10/19 02:05:42;;;;;;;6.45;4.30;;;;;;;18.09;50.24;99664.98;2301370;76;50404;-74
2023/10/19 02:08:55;;;;;;;7.53;4.78;;;;;;;18.03;50.35;99669.30;2300373;76;50757;-75
2023/10/19 02:11:57;;;;;;;5.92;4.17;;;;;;;18.01;50.47;99666.00;2325104;76;22387;-74
2023/10/19 02:14:59;;;;;;;5.85;4.45;;;;;;;17.99;50.46;99662.69;2273429;76;49966;-75
2023/10/19 02:18:03;;;;;;;5.15;4.10;;;;;;;18.00;50.41;99661.66;2300829;76;50379;-75
2023/10/19 02:21:06;;;;;;;5.62;4.17;;;;;;;18.03;50.39;99657.74;2325280;76;50793;-75
2023/10/19 02:24:17;;;;;;;5.78;4.35;;;;;;;18.09;50.26;99657.47;2299652;76;51916;-74
2023/10/19 02:27:20;;;;;;;6.35;4.37;;;;;;;18.18;50.08;99648.19;2275466;76;51657;-74
2023/10/19 02:30:24;;;;;;;5.60;4.03;;;;;;;18.18;50.08;99644.18;2325580;76;51805;-74
2023/10/19 02:33:26;;;;;;;6.12;4.50;;;;;;;18.18;50.05;99646.86;2300054;76;22228;-74
2023/10/19 02:36:30;;;;;;;6.37;4.50;;;;;;;18.17;50.06;99643.87;2326378;76;50315;-74
2023/10/19 02:39:32;;;;;;;5.78;4.65;;;;;;;18.14;50.12;99638.94;2274304;76;51747;-74
2023/10/19 02:42:34;;;;;;;6.15;4.10;;;;;;;18.12;50.13;99628.95;2326322;76;50811;-76
2023/10/19 02:45:37;;;;;;;5.90;4.35;;;;;;;18.05;50.27;99616.36;2299901;76;50391;-75
2023/10/19 02:48:44;;;;;;;6.17;4.50;;;;;;;18.02;50.37;99618.63;2299806;75;50342;-74
2023/10/19 02:51:46;;;;;;;6.33;4.72;;;;;;;17.99;50.40;99609.16;2299933;76;22219;-74
2023/10/19 02:54:48;;;;;;;;;;;;;;;18.00;50.37;99608.12;2302083;76;52538;-74
2023/10/19 02:57:50;;;;;;;5.58;4.50;;;;;;;18.02;50.36;99609.27;2299854;76;50360;-74
2023/10/19 03:00:52;;;;;;;5.70;4.25;;;;;;;18.04;50.32;99610.70;2334484;75;51451;-75
2023/10/19 03:03:59;;;;;;;6.42;4.35;;;;;;;18.20;49.99;99604.64;2287817;77;50949;-74
2023/10/19 03:06:59;;;;;;;6.50;4.58;;;;;;;18.26;49.88;99605.14;2281340;77;22273;-74
2023/10/19 03:10:02;;;;;;;6.17;4.65;;;;;;;18.26;49.83;99596.63;2253250;77;51440;-74
2023/10/19 03:13:04;;;;;;;6.00;5.10;;;;;;;18.24;49.85;99587.97;2228608;77;51726;-74
2023/10/19 03:16:09;;;;;;;4.53;4.00;;;;;;;18.16;49.99;99581.98;2280738;77;50333;-75
2023/10/19 03:19:11;;;;;;;5.92;4.40;;;;;;;18.14;50.06;99585.40;2281611;77;21959;-74
2023/10/19 03:22:14;;;;;;;6.35;4.67;;;;;;;18.10;50.09;99580.13;2255847;77;49596;-74
2023/10/19 03:28:37;;;;;;;5.90;4.60;;;;;;;18.03;50.30;99565.40;2305104;77;22159;-74
2023/10/19 03:31:43;;;;;;;5.80;4.47;;;;;;;18.05;50.19;99567.36;2319282;75;49613;-74
2023/10/19 03:34:47;;;;;;;7.70;4.35;;;;;;;18.08;50.17;99564.79;2325100;76;22171;-74
2023/10/19 03:37:48;;;;;;;4.65;4.10;;;;;;;18.03;50.27;99564.91;2300481;76;22255;-74
2023/10/19 03:40:59;;;;;;;5.30;4.10;;;;;;;18.10;50.17;99558.72;2326540;76;50306;-74
2023/10/19 03:43:58;;;;;;;6.35;4.42;;;;;;;18.18;50.00;99555.30;2300133;76;23603;-74
2023/10/19 03:47:11;;;;;;;6.15;4.22;;;;;;;18.25;49.83;99553.98;2274599;76;52444;-74
2023/10/19 03:50:06;;;;;;;5.45;4.22;;;;;;;18.21;49.87;99540.19;2326083;76;22269;-74
2023/10/19 03:53:12;;;;;;;5.47;4.20;;;;;;;18.23;49.82;99541.30;2300313;76;22249;-73
2023/10/19 03:56:12;;;;;;;6.92;4.60;;;;;;;18.16;50.00;99532.45;2300139;76;22375;-73
2023/10/19 03:59:16;;;;;;;5.12;4.22;;;;;;;18.11;50.14;99524.22;2299966;76;50638;-73
2023/10/19 04:02:20;;;;;;;6.25;4.47;;;;;;;18.06;50.21;99526.20;2300807;76;51535;-73
2023/10/19 04:05:26;;;;;;;6.15;4.33;;;;;;;18.04;50.22;99521.04;2300003;76;22479;-74
2023/10/19 04:08:31;;;;;;;7.50;4.33;;;;;;;18.01;50.32;99531.34;2300878;76;51534;-74
2023/10/19 04:11:47;;;;;;;6.72;4.50;;;;;;;18.01;50.30;99529.48;2300406;76;22248;-75
2023/10/19 04:14:38;;;;;;;5.92;4.35;;;;;;;18.00;50.34;99519.80;2297721;76;22689;-73
2023/10/19 04:17:42;;;;;;;7.55;4.75;;;;;;;18.12;50.07;99519.19;2274306;76;50520;-74
2023/10/19 04:23:59;;;;;;;6.15;4.33;;;;;;;18.24;49.83;99503.63;2326713;76;22171;-74
2023/10/19 04:27:01;;;;;;;5.83;4.12;;;;;;;18.22;49.83;99494.16;2326842;76;24679;-74
2023/10/19 04:30:04;;;;;;;7.17;4.50;;;;;;;18.25;49.77;99496.41;2326535;76;50669;-74
2023/10/19 04:33:12;;;;;;;6.58;4.60;;;;;;;18.18;49.91;99501.76;2308027;76;51576;-74
2023/10/19 04:36:15;;;;;;;5.67;4.50;;;;;;;18.14;49.98;99494.38;2274622;76;51665;-74
2023/10/19 04:39:19;;;;;;;6.42;4.65;;;;;;;18.08;50.12;99494.67;2326712;75;51657;-74
2023/10/19 04:42:22;;;;;;;6.78;4.58;;;;;;;18.08;50.13;99491.17;2299733;76;52552;-74
2023/10/19 04:45:25;;;;;;;8.48;4.60;;;;;;;18.00;50.24;99483.66;2300294;76;51291;-74
2023/10/19 04:48:27;;;;;;;5.55;4.33;;;;;;;18.03;50.18;99479.25;2299975;76;50269;-74
2023/10/19 04:51:29;;;;;;;5.72;4.45;;;;;;;18.02;50.20;99478.93;2299839;76;50703;-74
2023/10/19 04:54:31;;;;;;;5.58;4.40;;;;;;;18.06;50.15;99468.13;2299581;76;50595;-74
2023/10/19 04:57:33;;;;;;;5.60;3.95;;;;;;;18.14;49.98;99460.91;2326483;75;51531;-74
2023/10/19 05:00:36;;;;;;;7.10;4.75;;;;;;;18.17;49.95;99471.20;2301003;76;51717;-74
2023/10/19 05:03:38;;;;;;;5.65;4.28;;;;;;;18.22;49.82;99456.67;2323679;75;50193;-74
2023/10/19 05:06:41;;;;;;;6.17;4.55;;;;;;;18.19;49.89;99466.46;2326600;74;51539;-74
2023/10/19 05:09:43;;;;;;;6.75;4.25;;;;;;;18.22;49.84;99458.01;2274465;76;51186;-74
2023/10/19 05:12:45;;;;;;;5.65;4.05;;;;;;;18.17;49.90;99461.83;2326348;75;50658;-73
2023/10/19 05:15:48;;;;;;;5.78;4.50;;;;;;;18.15;49.95;99455.85;2299694;76;51784;-75
2023/10/19 05:18:50;;;;;;;6.20;4.65;;;;;;;18.12;50.05;99449.59;2299781;76;50259;-74
2023/10/19 05:21:52;;;;;;;7.58;4.70;;;;;;;18.08;50.09;99445.67;2299610;76;50588;-74
2023/10/19 05:24:54;;;;;;;8.55;5.12;;;;;;;18.03;50.16;99433.75;2274509;75;51158;-74
2023/10/19 05:27:57;;;;;;;6.85;4.78;;;;;;;18.02;50.20;99428.08;2299583;76;50445;-74
2023/10/19 05:30:59;;;;;;;6.00;4.25;;;;;;;18.05;50.10;99424.97;2301946;76;50002;-74
2023/10/19 05:34:02;;;;;;;6.10;4.22;;;;;;;18.05;50.12;99427.64;2283518;77;50090;-74
2023/10/19 05:37:05;;;;;;;6.78;4.12;;;;;;;18.17;49.91;99429.70;2261761;77;50329;-74
2023/10/19 05:40:12;;;;;;;6.67;4.90;;;;;;;18.21;49.82;99438.94;2261980;77;51567;-74
2023/10/19 05:43:12;;;;;;;6.45;4.62;;;;;;;18.24;49.78;99449.25;2262131;77;22318;-75
2023/10/19 05:46:18;;;;;;;6.33;4.50;;;;;;;18.21;49.76;99445.14;2287516;77;50288;-74
2023/10/19 05:49:19;;;;;;;5.67;4.40;;;;;;;18.25;49.74;99450.89;2243916;76;22366;-74
2023/10/19 05:52:22;;;;;;;6.87;4.50;;;;;;;18.18;49.85;99444.20;2261461;77;50819;-74
2023/10/19 05:55:25;;;;;;;6.78;4.70;;;;;;;18.16;49.90;99449.45;2286815;77;51556;-74
2023/10/19 05:58:27;;;;;;;6.22;4.28;;;;;;;18.12;49.97;99450.92;2261462;77;51051;-74
2023/10/19 06:01:30;;;;;;;7.10;5.00;;;;;;;18.11;50.01;99457.29;2302053;76;51437;-75
2023/10/19 06:04:32;;;;;;;6.22;4.58;;;;;;;18.05;50.09;99469.66;2329086;76;51424;-75
2023/10/19 06:07:34;;;;;;;7.05;5.15;;;;;;;18.10;49.97;99465.03;2324327;76;50803;-74
2023/10/19 06:10:39;;;;;;;6.20;4.53;;;;;;;18.10;49.96;99467.18;2298068;76;52156;-74
2023/10/19 06:13:40;;;;;;;6.12;4.62;;;;;;;18.12;49.96;99455.75;2324527;76;22346;-74
2023/10/19 06:16:43;;;;;;;6.50;4.70;;;;;;;18.18;49.86;99446.06;2297942;76;50225;-74
2023/10/19 06:19:45;;;;;;;6.45;4.60;;;;;;;18.22;49.77;99433.91;2271392;76;50612;-75
2023/10/19 06:22:52;;;;;;;6.30;4.47;;;;;;;18.21;49.77;99432.25;2271399;76;52606;-74
2023/10/19 06:25:52;;;;;;;5.90;4.62;;;;;;;18.21;49.75;99420.20;2324292;76;22295;-75
2023/10/19 06:28:58;;;;;;;7.15;4.70;;;;;;;18.24;49.66;99413.11;2324490;76;50241;-75
2023/10/19 06:31:58;;;;;;;5.78;4.28;;;;;;;18.18;49.77;99408.58;2273287;76;22323;-74
2023/10/19 06:35:01;;;;;;;6.10;4.80;;;;;;;18.14;49.88;99406.84;2325553;76;50691;-74
2023/10/19 06:38:04;;;;;;;5.47;4.55;;;;;;;18.12;49.93;99401.40;2274598;76;51285;-74
2023/10/19 06:41:13;;;;;;;7.12;4.83;;;;;;;18.05;50.08;99391.52;2273249;76;50391;-75
2023/10/19 06:44:16;;;;;;;6.05;4.70;;;;;;;18.02;50.16;99391.13;2326142;76;51676;-74
2023/10/19 06:47:19;;;;;;;6.75;4.75;;;;;;;17.98;50.23;99398.77;2274534;76;49657;-74
2023/10/19 06:50:21;;;;;;;6.08;4.80;;;;;;;18.05;50.11;99388.02;2273447;76;51443;-74
2023/10/19 06:53:24;;;;;;;6.87;5.03;;;;;;;18.11;50.01;99385.02;2326302;76;50450;-73
2023/10/19 06:56:26;;;;;;;7.00;5.05;;;;;;;18.21;49.76;99384.90;2299741;76;51646;-74
2023/10/19 06:59:29;;;;;;;6.70;4.47;;;;;;;18.26;49.67;99377.55;2299825;76;51409;-74
2023/10/19 07:02:31;;;;;;;5.62;4.42;;;;;;;18.22;49.75;99368.31;2305400;76;52562;-74
2023/10/19 07:05:34;;;;;;;6.78;4.47;;;;;;;18.17;49.86;99370.28;2261592;77;50341;-73
2023/10/19 07:08:36;;;;;;;6.33;4.70;;;;;;;18.14;49.95;99361.86;2287598;76;50096;-74
2023/10/19 07:11:38;;;;;;;7.03;4.97;;;;;;;18.12;49.99;99366.08;2261859;77;49941;-74
2023/10/19 07:14:41;;;;;;;6.55;4.95;;;;;;;18.09;50.06;99369.70;2261538;77;50228;-74
2023/10/19 07:17:43;;;;;;;6.25;4.92;;;;;;;18.08;50.07;99368.04;2261633;77;50275;-74
2023/10/19 07:20:48;;;;;;;7.05;4.60;;;;;;;18.09;50.02;99368.37;2261497;77;49921;-73
2023/10/19 07:23:52;;;;;;;6.45;5.00;;;;;;;18.05;50.10;99358.58;2262023;77;22288;-74
2023/10/19 07:27:07;;;;;;;7.62;4.87;;;;;;;18.09;50.00;99352.30;2262152;77;22422;-74
2023/10/19 07:30:09;;;;;;;7.50;4.95;;;;;;;18.11;49.98;99360.43;2287760;77;22515;-74
2023/10/19 07:33:17;;;;;;;9.58;5.53;;;;;;;18.19;49.83;99364.73;2294839;76;50368;-74
2023/10/19 07:36:16;;;;;;;7.28;4.90;;;;;;;18.22;49.79;99359.76;2299320;75;22962;-74
2023/10/19 07:39:19;;;;;;;6.78;4.92;;;;;;;18.25;49.72;99355.31;2326338;76;51527;-74
2023/10/19 07:42:21;;;;;;;6.65;4.87;;;;;;;18.21;49.79;99374.69;2299388;76;50359;-74
2023/10/19 07:45:25;;;;;;;7.85;4.92;;;;;;;18.17;49.87;99376.97;2299763;76;50186;-74
2023/10/19 07:48:27;;;;;;;6.00;4.40;;;;;;;18.16;49.86;99378.51;2326092;75;50083;-74
2023/10/19 07:51:30;;;;;;;7.35;4.58;;;;;;;18.12;49.98;99381.32;2299768;76;51493;-74
2023/10/19 07:54:33;;;;;;;6.87;5.10;;;;;;;18.06;50.12;99384.33;2326293;75;50007;-74
2023/10/19 07:57:35;;;;;;;6.22;4.70;;;;;;;18.05;50.13;99375.45;2299786;76;50093;-74
2023/10/19 08:00:38;;;;;;;6.45;4.67;;;;;;;18.03;50.17;99372.68;2301617;76;51568;-74
2023/10/19 08:03:40;;;;;;;7.05;4.78;;;;;;;18.00;50.24;99365.89;2302423;76;50265;-75
2023/10/19 08:06:44;;;;;;;7.97;4.62;;;;;;;18.04;50.18;99371.14;2338867;76;50278;-74
2023/10/19 08:09:46;;;;;;;5.72;4.83;;;;;;;18.12;50.04;99366.59;2314382;76;51514;-73
2023/10/19 08:12:49;;;;;;;6.67;4.92;;;;;;;18.22;49.82;99369.66;2338678;76;51413;-73
2023/10/19 08:15:51;;;;;;;6.90;4.65;;;;;;;18.26;49.75;99366.84;2340494;76;52495;-72
2023/10/19 08:18:54;;;;;;;6.47;4.95;;;;;;;18.24;49.78;99367.59;2314369;76;51551;-74
2023/10/19 08:21:56;;;;;;;7.75;4.80;;;;;;;18.18;49.86;99367.08;2338810;76;51456;-74
2023/10/19 08:24:58;;;;;;;6.72;4.97;;;;;;;18.20;49.83;99360.48;2288445;76;51721;-72
2023/10/19 08:28:01;;;;;;;7.75;5.42;;;;;;;18.15;49.97;99347.43;2338671;76;50407;-72
2023/10/19 08:31:05;;;;;;;5.67;4.25;;;;;;;18.14;49.98;99343.13;2335190;76;51592;-73
2023/10/19 08:34:09;;;;;;;7.15;4.92;;;;;;;18.12;50.01;99339.30;2300363;76;50370;-73
2023/10/19 08:37:11;;;;;;;6.90;5.25;;;;;;;18.09;50.07;99344.27;2304152;75;51624;-73
2023/10/19 08:40:17;;;;;;;7.75;5.20;;;;;;;18.11;50.03;99332.81;2329490;76;51000;-72
2023/10/19 08:43:21;;;;;;;6.95;4.90;;;;;;;18.11;50.04;99332.81;2304541;76;50388;-73
2023/10/19 08:46:24;;;;;;;5.55;4.60;;;;;;;18.13;49.99;99314.17;2327900;76;50808;-72
2023/10/19 08:49:27;;;;;;;6.53;4.53;;;;;;;18.18;49.88;99306.84;2328309;76;51551;-72
2023/10/19 08:52:29;;;;;;;11.83;5.50;;;;;;;18.23;49.81;99308.36;2328347;74;50675;-70
2023/10/19 08:55:31;;;;;;;8.35;5.10;;;;;;;18.21;49.86;99311.27;2329598;76;50336;-72
2023/10/19 08:58:34;;;;;;;8.20;4.97;;;;;;;18.21;49.87;99314.45;2275966;76;50638;-72
2023/10/19 09:01:36;;;;;;;7.75;5.22;;;;;;;18.21;49.84;99314.45;2328617;74;51535;-72
2023/10/19 09:04:44;;;;;;;8.33;5.58;;;;;;;18.15;49.99;99308.61;2290162;76;51148;-71
2023/10/19 09:07:54;;;;;;;7.80;5.25;;;;;;;18.13;50.07;99310.67;2300579;76;50757;-73
2023/10/19 09:10:55;;;;;;;8.98;5.15;;;;;;;18.09;50.13;99311.62;2326916;76;22886;-73
2023/10/19 09:13:58;;;;;;;7.50;4.85;;;;;;;18.05;50.21;99303.19;2300375;76;51519;-73
2023/10/19 09:17:03;;;;;;;7.83;5.00;;;;;;;18.09;50.13;99316.17;2326390;76;51381;-72
2023/10/19 09:20:09;;;;;;;6.53;4.55;;;;;;;18.07;50.21;99315.03;2326664;76;22997;-73
2023/10/19 09:23:10;;;;;;;6.83;5.08;;;;;;;18.13;50.11;99298.63;2326173;76;22210;-73
2023/10/19 09:26:12;;;;;;;6.60;4.92;;;;;;;18.20;49.92;99295.41;2273470;76;51514;-72
2023/10/19 09:29:16;;;;;;;6.47;5.17;;;;;;;18.19;49.97;99291.92;2326432;76;51616;-74
2023/10/19 09:32:19;;;;;;;6.67;5.22;;;;;;;18.20;49.91;99282.84;2294905;76;50408;-73
2023/10/19 09:35:21;;;;;;;6.67;5.12;;;;;;;18.20;49.94;99284.70;2328196;76;51550;-72
2023/10/19 09:38:28;;;;;;;6.65;5.08;;;;;;;18.20;49.95;99278.02;2326317;75;50411;-73
2023/10/19 09:41:30;;;;;;;7.47;5.10;;;;;;;18.14;50.02;99279.69;2325778;76;22881;-72
2023/10/19 09:44:44;;;;;;;7.60;5.40;;;;;;;18.14;50.05;99277.53;2300184;76;50414;-72
2023/10/19 09:47:49;;;;;;;7.75;5.22;;;;;;;18.11;50.12;99280.61;2326315;75;50802;-72
2023/10/19 09:50:54;;;;;;;;;;;;;;;18.06;50.21;99283.44;2329266;75;50161;-72
2023/10/19 09:54:04;;;;;;;7.08;5.20;;;;;;;18.06;50.20;99290.13;2326491;76;22426;-73
2023/10/19 09:57:12;;;;;;;8.83;5.92;;;;;;;18.05;50.20;99285.78;2326209;76;50752;-73
2023/10/19 10:00:13;;;;;;;9.08;5.30;;;;;;;18.05;50.24;99284.45;2326722;76;22337;-73
2023/10/19 10:03:47;;;;;;;6.55;5.05;;;;;;;18.13;50.12;99287.92;2269705;76;51179;-73
2023/10/19 10:06:55;;;;;;;7.15;5.25;;;;;;;18.19;49.96;99279.05;2326233;76;50461;-73
2023/10/19 10:09:58;;;;;;;7.10;5.15;;;;;;;18.22;49.90;99274.61;2326324;76;50803;-72
2023/10/19 10:13:03;;;;;;;6.90;5.47;;;;;;;18.30;49.74;99270.34;2299162;76;52500;-73
2023/10/19 10:16:05;;;;;;;;;;;;;;;18.23;49.88;99274.90;2325395;75;51706;-73
2023/10/19 10:19:07;;;;;;;6.70;4.90;;;;;;;18.25;49.80;99272.83;2299560;75;50719;-73
2023/10/19 10:22:20;;;;;;;6.72;5.28;;;;;;;18.19;49.91;99265.14;2299271;76;50339;-73
2023/10/19 10:25:28;;;;;;;7.35;5.05;;;;;;;18.13;50.05;99274.53;2299400;75;22042;-73
2023/10/19 10:28:30;;;;;;;7.05;5.08;;;;;;;18.08;50.17;99269.81;2336232;76;50454;-73
2023/10/19 10:31:34;;;;;;;8.55;5.42;;;;;;;18.07;50.22;99268.19;2302400;75;51414;-75
2023/10/19 10:34:42;;;;;;;7.60;5.05;;;;;;;18.08;50.14;99258.30;2294297;76;52377;-73
2023/10/19 10:37:48;;;;;;;7.30;5.20;;;;;;;18.09;50.14;99241.22;2299041;76;53145;-73
2023/10/19 10:40:50;;;;;;;;;;;;;;;18.16;50.06;99243.32;2327390;76;51507;-72
2023/10/19 10:43:54;;;;;;;6.55;4.55;;;;;;;18.26;49.83;99245.86;2326635;76;50351;-73
2023/10/19 10:46:56;;;;;;;7.80;5.87;;;;;;;18.26;49.83;99250.37;2325649;76;49601;-73
2023/10/19 10:49:59;;;;;;;7.25;4.62;;;;;;;18.23;49.89;99234.73;2326332;76;50364;-72
2023/10/19 10:53:01;;;;;;;7.47;5.30;;;;;;;18.25;49.82;99237.50;2299337;76;50583;-73
2023/10/19 10:56:04;;;;;;;7.42;5.55;;;;;;;18.22;49.88;99231.77;2325737;76;51098;-72
2023/10/19 10:59:13;;;;;;;7.50;5.58;;;;;;;18.17;49.96;99236.42;2326192;75;51501;-73
2023/10/19 11:02:22;;;;;;;8.48;5.70;;;;;;;18.16;50.02;99229.94;2297572;76;50738;-73
2023/10/19 11:05:24;;;;;;;7.30;4.92;;;;;;;18.12;50.09;99225.54;2299575;76;50796;-73
2023/10/19 11:08:27;;;;;;;7.25;5.28;;;;;;;18.05;50.27;99222.07;2326143;74;51349;-73
2023/10/19 11:11:29;;;;;;;8.13;5.67;;;;;;;18.06;50.21;99231.77;2249168;76;51750;-74
2023/10/19 11:14:32;;;;;;;7.65;5.17;;;;;;;18.09;50.12;99225.16;2299241;76;51537;-73
2023/10/19 11:17:34;;;;;;;7.87;5.05;;;;;;;18.12;50.13;99234.09;2299447;76;50617;-73
2023/10/19 11:20:36;;;;;;;10.30;5.20;;;;;;;18.15;50.08;99239.83;2274255;76;52539;-72
2023/10/19 11:23:41;;;;;;;8.45;5.65;;;;;;;18.22;49.96;99228.56;2326207;76;50605;-73
2023/10/19 11:26:44;;;;;;;7.92;5.45;;;;;;;18.29;49.80;99223.19;2326509;76;51570;-73
2023/10/19 11:29:59;;;;;;;7.35;5.15;;;;;;;18.27;49.80;99223.91;2273569;76;51642;-73
2023/10/19 11:33:02;;;;;;;7.78;5.33;;;;;;;18.25;49.85;99210.73;2330358;76;50443;-72
2023/10/19 11:36:04;;;;;;;9.35;5.90;;;;;;;18.18;50.00;99206.45;2299329;76;52364;-73
2023/10/19 11:39:11;;;;;;;8.05;4.83;;;;;;;18.18;49.98;99199.23;2299757;76;50289;-72
2023/10/19 11:42:10;;;;;;;7.28;5.70;;;;;;;18.12;50.08;99198.77;2299547;75;22454;-72
2023/10/19 11:45:12;;;;;;;8.08;5.35;;;;;;;18.09;50.18;99192.52;2299416;76;52456;-72
2023/10/19 11:48:15;;;;;;;8.33;5.30;;;;;;;18.08;50.24;99192.72;2299557;76;50774;-72
2023/10/19 11:51:18;;;;;;;7.42;5.70;;;;;;;18.07;50.24;99193.24;2299645;76;50341;-73
2023/10/19 11:54:20;;;;;;;7.40;5.28;;;;;;;18.08;50.24;99192.72;2299374;75;50334;-73
2023/10/19 11:57:22;;;;;;;7.97;5.45;;;;;;;18.12;50.18;99185.91;2299710;76;50263;-72
2023/10/19 12:00:43;;;;;;;6.87;5.28;;;;;;;18.19;50.02;99180.81;2274339;76;50944;-73
2023/10/19 12:03:32;;;;;;;7.35;5.12;;;;;;;18.30;49.86;99183.84;2298476;76;22446;-72
2023/10/19 12:06:34;;;;;;;8.13;5.62;;;;;;;18.27;49.88;99187.24;2314096;76;51618;-72
2023/10/19 12:09:36;;;;;;;6.53;5.20;;;;;;;18.27;49.86;99189.11;2338552;76;51486;-72
2023/10/19 12:12:38;;;;;;;6.22;5.28;;;;;;;18.23;49.96;99186.55;2313796;76;51372;-73
2023/10/19 12:15:41;;;;;;;6.90;5.40;;;;;;;18.19;50.02;99181.34;2338529;75;50227;-72
2023/10/19 12:18:43;;;;;;;6.50;5.00;;;;;;;18.14;50.11;99186.00;2288239;76;52555;-73
2023/10/19 12:21:46;;;;;;;7.30;5.62;;;;;;;18.11;50.18;99182.91;2313947;76;51572;-74
2023/10/19 12:24:48;;;;;;;7.80;5.53;;;;;;;18.05;50.33;99173.37;2313814;76;51666;-73
2023/10/19 12:27:51;;;;;;;6.95;5.33;;;;;;;18.04;50.36;99167.73;2314010;76;51504;-72
2023/10/19 12:30:53;;;;;;;8.30;5.65;;;;;;;18.06;50.27;99171.02;2313798;76;51453;-72
2023/10/19 12:33:56;;;;;;;7.45;5.30;;;;;;;18.14;50.17;99168.59;2288080;76;51465;-72
2023/10/19 12:36:58;;;;;;;7.40;5.37;;;;;;;18.18;50.08;99160.94;2261734;77;51645;-72
2023/10/19 12:40:06;;;;;;;7.67;5.37;;;;;;;18.19;50.08;99158.59;2287494;77;50303;-72
2023/10/19 12:43:07;;;;;;;8.03;5.78;;;;;;;18.29;49.91;99164.28;2260357;77;22465;-72
2023/10/19 12:46:09;;;;;;;6.97;5.22;;;;;;;18.21;50.00;99162.69;2287826;77;22839;-72
2023/10/19 12:49:16;;;;;;;7.78;5.15;;;;;;;18.20;50.04;99172.27;2236997;77;51456;-73
2023/10/19 12:52:15;;;;;;;7.97;5.58;;;;;;;18.18;50.07;99169.78;2261498;77;22679;-73
2023/10/19 12:55:18;;;;;;;8.25;5.78;;;;;;;18.12;50.19;99166.64;2261737;77;50271;-73
2023/10/19 12:58:21;;;;;;;7.05;5.17;;;;;;;18.09;50.28;99163.07;2287441;76;50667;-73
2023/10/19 13:01:23;;;;;;;6.97;5.10;;;;;;;18.06;50.33;99156.30;2276011;76;50411;-73
2023/10/19 13:04:29;;;;;;;7.33;5.28;;;;;;;18.05;50.35;99163.19;2296951;76;50072;-74
2023/10/19 13:07:31;;;;;;;8.53;5.37;;;;;;;18.08;50.29;99158.73;2303602;76;22231;-74
2023/10/19 13:10:34;;;;;;;8.13;5.65;;;;;;;18.06;50.37;99161.65;2327385;76;51522;-74
2023/10/19 13:13:39;;;;;;;7.45;5.65;;;;;;;18.13;50.22;99162.92;2327041;76;50759;-73
2023/10/19 13:16:41;;;;;;;7.03;5.20;;;;;;;18.21;50.07;99169.87;2277884;76;49972;-73
2023/10/19 13:19:43;;;;;;;8.13;5.22;;;;;;;18.19;50.10;99166.62;2302919;76;51555;-73
2023/10/19 13:22:47;;;;;;;7.72;5.35;;;;;;;18.21;50.03;99166.70;2302743;76;51614;-73
2023/10/19 13:29:03;;;;;;;6.83;5.50;;;;;;;18.16;50.15;99168.36;2270257;76;22399;-73
2023/10/19 13:32:05;;;;;;;8.73;5.60;;;;;;;18.14;50.18;99165.11;2303411;76;52624;-73
2023/10/19 13:35:09;;;;;;;7.95;5.80;;;;;;;18.09;50.28;99164.41;2286420;77;50363;-72
2023/10/19 13:38:13;;;;;;;8.75;5.60;;;;;;;18.06;50.35;99157.63;2261631;77;50675;-73
2023/10/19 13:41:16;;;;;;;8.05;5.90;;;;;;;17.99;50.47;99147.48;2237013;77;51215;-73
2023/10/19 13:44:21;;;;;;;8.00;5.62;;;;;;;18.03;50.39;99135.81;2287193;76;51552;-73
2023/10/19 13:47:23;;;;;;;7.72;6.30;;;;;;;18.05;50.34;99140.44;2262041;77;22442;-73
2023/10/19 13:50:26;;;;;;;8.05;5.60;;;;;;;18.11;50.22;99140.93;2261429;77;51847;-73
2023/10/19 13:53:28;;;;;;;9.18;5.87;;;;;;;18.18;50.10;99144.36;2287022;77;50323;-73
2023/10/19 13:56:30;;;;;;;7.08;5.75;;;;;;;18.25;49.97;99144.32;2261524;77;50507;-74
2023/10/19 13:59:33;;;;;;;8.18;5.80;;;;;;;18.25;49.96;99148.34;2261452;77;50563;-74
2023/10/19 14:02:36;;;;;;;8.65;6.22;;;;;;;18.21;50.01;99131.90;2316450;76;50340;-74
2023/10/19 14:05:39;;;;;;;8.73;5.80;;;;;;;18.20;50.10;99129.42;2272380;76;52372;-74
2023/10/19 14:08:41;;;;;;;8.33;5.70;;;;;;;18.16;50.15;99131.73;2297697;76;51552;-74
2023/10/19 14:11:49;;;;;;;8.00;5.95;;;;;;;18.14;50.15;99138.34;2324134;76;51452;-74
2023/10/19 14:14:48;;;;;;;8.90;6.20;;;;;;;18.09;50.29;99142.19;2323782;76;22233;-74
2023/10/19 14:17:50;;;;;;;8.73;5.67;;;;;;;18.03;50.41;99129.97;2324106;76;50280;-74
2023/10/19 14:20:52;;;;;;;8.38;5.80;;;;;;;18.04;50.38;99129.44;2272338;76;52352;-74
2023/10/19 14:23:54;;;;;;;7.53;5.58;;;;;;;18.02;50.46;99140.35;2270847;76;50215;-74
2023/10/19 14:26:57;;;;;;;7.70;5.65;;;;;;;18.08;50.33;99135.98;2324272;76;50270;-74
2023/10/19 14:29:59;;;;;;;7.87;5.95;;;;;;;18.19;50.07;99130.48;2272484;76;52542;-74
2023/10/19 14:33:01;;;;;;;7.15;6.05;;;;;;;18.21;50.03;99125.20;2299994;76;50794;-74
2023/10/19 14:36:04;;;;;;;9.80;6.22;;;;;;;18.26;49.92;99116.50;2338392;76;50195;-74
2023/10/19 14:39:09;;;;;;;8.40;5.80;;;;;;;18.26;49.93;99115.16;2285072;76;51611;-74